createdAt,value
2018-06-04T00:00:47.024Z,101039.66
2018-06-04T00:03:18.526Z,101035.78
2018-06-04T00:05:48.626Z,101031.38
2018-06-04T00:08:18.508Z,101029.55
2018-06-04T00:10:49.493Z,101025.64
2018-06-04T00:13:19.570Z,101027.84
2018-06-04T00:15:53.450Z,101027.91
2018-06-04T00:18:23.618Z,101028.36
2018-06-04T00:20:54.632Z,101030.12
2018-06-04T00:23:25.906Z,101021.03
2018-06-04T00:25:55.716Z,101031.13
2018-06-04T00:28:25.563Z,101024.61
2018-06-04T00:30:55.866Z,101019.39
2018-06-04T00:33:25.704Z,101016.00
2018-06-04T00:35:55.419Z,101016.90
2018-06-04T00:38:25.148Z,101024.84
2018-06-04T00:40:55.554Z,101018.06
2018-06-04T00:43:25.370Z,101016.38
2018-06-04T00:45:55.169Z,101015.98
2018-06-04T00:48:26.885Z,101017.39
2018-06-04T00:50:57.211Z,101012.55
2018-06-04T00:53:27.066Z,101010.47
2018-06-04T00:56:13.533Z,101010.51
2018-06-04T00:58:43.453Z,101012.33
2018-06-04T01:01:13.226Z,101006.70
2018-06-04T01:03:43.090Z,101006.11
2018-06-04T01:06:12.727Z,101007.41
2018-06-04T01:08:42.373Z,101004.17
2018-06-04T01:11:12.389Z,100998.95
2018-06-04T01:13:42.496Z,100997.81
2018-06-04T01:16:13.401Z,100997.81
2018-06-04T01:18:43.144Z,101002.13
2018-06-04T01:21:12.967Z,100996.84
2018-06-04T01:23:42.877Z,100997.70
2018-06-04T01:26:13.299Z,100997.98
2018-06-04T01:28:43.524Z,100988.91
2018-06-04T01:31:13.324Z,101000.93
2018-06-04T01:33:42.739Z,100997.98
2018-06-04T01:36:13.724Z,100994.87
2018-06-04T01:38:43.440Z,100997.48
2018-06-04T01:41:13.147Z,101001.91
2018-06-04T01:43:42.962Z,100998.74
2018-06-04T01:46:12.722Z,100993.13
2018-06-04T01:48:42.499Z,100991.26
2018-06-04T01:51:12.238Z,100988.88
2018-06-04T01:53:42.919Z,100991.07
2018-06-04T01:56:14.408Z,100991.11
2018-06-04T01:58:45.210Z,100994.39
2018-06-04T02:01:15.875Z,100982.77
2018-06-04T02:03:45.844Z,100990.63
2018-06-04T02:06:15.517Z,100993.94
2018-06-04T02:08:45.209Z,100990.92
2018-06-04T02:11:14.918Z,100999.71
2018-06-04T02:13:46.203Z,100993.27
2018-06-04T02:16:16.496Z,100988.28
2018-06-04T02:18:47.155Z,100987.88
2018-06-04T02:21:17.003Z,100978.63
2018-06-04T02:23:47.012Z,100981.16
2018-06-04T02:26:16.664Z,100988.50
2018-06-04T02:28:46.396Z,100982.62
2018-06-04T02:31:16.176Z,100975.36
2018-06-04T02:33:45.908Z,100976.84
2018-06-04T02:36:15.601Z,100981.12
2018-06-04T02:38:45.259Z,100981.42
2018-06-04T02:41:14.884Z,100982.21
2018-06-04T02:43:44.581Z,100980.69
2018-06-04T02:46:14.242Z,100977.03
2018-06-04T02:48:43.742Z,100979.48
2018-06-04T02:51:13.472Z,100978.00
2018-06-04T02:53:43.665Z,100974.91
2018-06-04T02:56:13.994Z,100976.50
2018-06-04T02:58:43.722Z,100981.72
2018-06-04T03:01:13.485Z,100980.12
2018-06-04T03:03:43.206Z,100974.61
2018-06-04T03:06:13.045Z,100976.44
2018-06-04T03:08:42.768Z,100978.48
2018-06-04T03:11:12.524Z,100982.65
2018-06-04T03:13:44.176Z,100970.84
2018-06-04T03:16:13.994Z,100972.88
2018-06-04T03:18:43.748Z,100971.50
2018-06-04T03:21:13.429Z,100966.52
2018-06-04T03:23:43.783Z,100967.48
2018-06-04T03:26:13.598Z,100963.21
2018-06-04T03:28:43.315Z,100966.75
2018-06-04T03:31:12.916Z,100964.02
2018-06-04T03:33:42.747Z,100967.82
2018-06-04T03:36:12.497Z,100964.40
2018-06-04T03:38:42.130Z,100971.73
2018-06-04T03:41:12.226Z,100968.16
2018-06-04T03:43:41.937Z,100963.68
2018-06-04T03:46:12.701Z,100970.08
2018-06-04T03:48:43.401Z,100961.33
2018-06-04T03:51:13.284Z,100964.78
2018-06-04T03:53:43.302Z,100962.18
2018-06-04T03:56:13.773Z,100964.67
2018-06-04T03:58:43.525Z,100965.05
2018-06-04T04:01:13.182Z,100959.49
2018-06-04T04:03:43.301Z,100957.74
2018-06-04T04:06:13.995Z,100955.30
2018-06-04T04:08:44.844Z,100950.76
2018-06-04T04:11:14.773Z,100955.56
2018-06-04T04:13:44.659Z,100954.22
2018-06-04T04:16:14.975Z,100962.37
2018-06-04T04:18:45.605Z,100959.66
2018-06-04T04:21:15.545Z,100961.52
2018-06-04T04:23:45.312Z,100963.68
2018-06-04T04:26:15.409Z,100965.90
2018-06-04T04:28:46.102Z,100960.81
2018-06-04T04:31:16.705Z,100957.97
2018-06-04T04:33:46.573Z,100959.27
2018-06-04T04:36:17.731Z,100959.63
2018-06-04T04:38:48.188Z,100949.98
2018-06-04T04:41:19.932Z,100951.84
2018-06-04T04:43:49.778Z,100956.00
2018-06-04T04:46:19.875Z,100956.56
2018-06-04T04:48:49.733Z,100953.15
2018-06-04T04:51:19.754Z,100958.72
2018-06-04T04:53:49.662Z,100957.78
2018-06-04T04:56:19.556Z,100958.75
2018-06-04T04:58:50.182Z,100958.19
2018-06-04T05:01:19.530Z,100954.56
2018-06-04T05:03:49.782Z,100949.30
2018-06-04T05:06:19.610Z,100951.84
2018-06-04T05:08:49.332Z,100958.36
2018-06-04T05:11:19.246Z,100954.83
2018-06-04T05:13:49.013Z,100951.28
2018-06-04T05:16:18.801Z,100953.89
2018-06-04T05:18:49.341Z,100952.63
2018-06-04T05:21:19.702Z,100949.69
2018-06-04T05:23:50.311Z,100944.36
2018-06-04T05:26:19.999Z,100938.50
2018-06-04T05:28:50.697Z,100936.14
2018-06-04T05:31:21.691Z,100940.73
2018-06-04T05:33:53.169Z,100933.47
2018-06-04T05:36:23.816Z,100934.99
2018-06-04T05:38:54.325Z,100935.73
2018-06-04T05:41:24.073Z,100934.80
2018-06-04T05:43:53.865Z,100936.35
2018-06-04T05:46:24.515Z,100933.58
2018-06-04T05:48:56.398Z,100931.59
2018-06-04T05:51:26.663Z,100931.09
2018-06-04T05:53:56.988Z,100923.48
2018-06-04T05:56:27.347Z,100920.66
2018-06-04T05:58:57.326Z,100923.52
2018-06-04T06:01:29.418Z,100921.27
2018-06-04T06:04:00.519Z,100920.30
2018-06-04T06:06:30.221Z,100916.70
2018-06-04T06:09:02.321Z,100914.20
2018-06-04T06:11:32.809Z,100916.47
2018-06-04T06:14:05.479Z,100915.85
2018-06-04T06:16:36.780Z,100920.95
2018-06-04T06:19:07.451Z,100910.13
2018-06-04T06:21:38.665Z,100907.84
2018-06-04T06:24:10.316Z,100903.35
2018-06-04T06:26:40.091Z,100912.69
2018-06-04T06:29:09.812Z,100906.23
2018-06-04T06:31:40.890Z,100902.23
2018-06-04T06:34:11.864Z,100903.41
2018-06-04T06:36:41.798Z,100904.41
2018-06-04T06:39:12.510Z,100904.55
2018-06-04T06:41:42.225Z,100909.55
2018-06-04T06:44:12.429Z,100913.38
2018-06-04T06:46:42.208Z,100911.90
2018-06-04T06:49:12.917Z,100905.50
2018-06-04T06:51:42.679Z,100908.97
2018-06-04T06:54:12.713Z,100905.50
2018-06-04T06:56:42.838Z,100912.12
2018-06-04T06:59:12.936Z,100903.91
2018-06-04T07:01:42.706Z,100904.57
2018-06-04T07:04:12.392Z,100898.48
2018-06-04T07:06:42.043Z,100898.35
2018-06-04T07:09:12.658Z,100900.33
2018-06-04T07:11:42.750Z,100904.51
2018-06-04T07:14:12.639Z,100901.75
2018-06-04T07:16:42.234Z,100899.33
2018-06-04T07:19:13.673Z,100900.65
2018-06-04T07:21:44.657Z,100901.29
2018-06-04T07:24:15.447Z,100898.03
2018-06-04T07:26:47.167Z,100901.37
2018-06-04T07:29:17.826Z,100908.16
2018-06-04T07:31:47.998Z,100911.22
2018-06-04T07:34:18.529Z,100907.51
2018-06-04T07:36:49.093Z,100907.02
2018-06-04T07:39:19.137Z,100903.22
2018-06-04T07:41:49.571Z,100901.55
2018-06-04T07:44:19.825Z,100904.45
2018-06-04T07:46:49.960Z,100903.26
2018-06-04T07:49:21.918Z,100901.20
2018-06-04T07:51:52.393Z,100890.88
2018-06-04T07:54:22.248Z,100894.66
2018-06-04T07:56:52.239Z,100883.89
2018-06-04T07:59:22.656Z,100883.84
2018-06-04T08:01:52.437Z,100876.42
2018-06-04T08:04:22.253Z,100878.50
2018-06-04T08:06:52.041Z,100876.77
2018-06-04T08:09:23.895Z,100877.83
2018-06-04T08:11:53.580Z,100872.59
2018-06-04T08:14:24.219Z,100867.97
2018-06-04T08:16:53.952Z,100872.20
2018-06-04T08:19:23.906Z,100872.50
2018-06-04T08:21:54.954Z,100864.37
2018-06-04T08:24:24.839Z,100866.31
2018-06-04T08:26:55.388Z,100866.64
2018-06-04T08:29:26.357Z,100862.89
2018-06-04T08:31:57.070Z,100863.58
2018-06-04T08:34:28.301Z,100868.20
2018-06-04T08:37:00.204Z,100865.59
2018-06-04T08:39:30.052Z,100870.29
2018-06-04T08:42:00.078Z,100864.59
2018-06-04T08:44:29.846Z,100862.50
2018-06-04T08:47:00.174Z,100862.42
2018-06-04T08:49:30.099Z,100861.98
2018-06-04T08:52:00.989Z,100861.52
2018-06-04T08:54:31.661Z,100858.34
2018-06-04T08:57:01.356Z,100853.11
2018-06-04T08:59:31.178Z,100854.42
2018-06-04T09:02:01.849Z,100853.17
2018-06-04T09:04:32.111Z,100856.42
2018-06-04T09:07:02.270Z,100857.63
2018-06-04T09:09:33.192Z,100856.72
2018-06-04T09:12:05.328Z,100854.32
2018-06-04T09:14:35.668Z,100852.38
2018-06-04T09:17:06.224Z,100849.06
2018-06-04T09:19:36.022Z,100848.66
2018-06-04T09:22:05.831Z,100848.60
2018-06-04T09:24:36.569Z,100852.45
2018-06-04T09:27:06.330Z,100851.81
2018-06-04T09:29:38.650Z,100842.59
2018-06-04T09:32:10.342Z,100844.05
2018-06-04T09:34:40.012Z,100844.98
2018-06-04T09:37:09.760Z,100840.66
2018-06-04T09:39:40.464Z,100842.41
2018-06-04T09:42:10.881Z,100836.66
2018-06-04T09:44:40.677Z,100838.73
2018-06-04T09:47:10.381Z,100843.41
2018-06-04T09:49:40.940Z,100842.19
2018-06-04T09:52:11.166Z,100830.08
2018-06-04T09:54:40.882Z,100829.72
2018-06-04T09:57:10.518Z,100833.67
2018-06-04T09:59:41.933Z,100826.25
2018-06-04T10:02:12.179Z,100819.22
2018-06-04T10:04:42.007Z,100821.03
2018-06-04T10:07:12.648Z,100819.53
2018-06-04T10:09:42.575Z,100817.98
2018-06-04T10:12:12.223Z,100830.45
2018-06-04T10:14:42.290Z,100824.05
2018-06-04T10:17:12.027Z,100819.70
2018-06-04T10:19:42.074Z,100826.13
2018-06-04T10:22:12.336Z,100810.92
2018-06-04T10:24:41.996Z,100817.73
2018-06-04T10:27:12.425Z,100824.94
2018-06-04T10:29:42.141Z,100820.82
2018-06-04T10:32:11.826Z,100823.83
2018-06-04T10:34:41.551Z,100818.61
2018-06-04T10:37:11.230Z,100817.98
2018-06-04T10:39:41.923Z,100825.43
2018-06-04T10:42:12.868Z,100822.05
2018-06-04T10:44:42.592Z,100821.13
2018-06-04T10:47:12.657Z,100817.91
2018-06-04T10:49:45.545Z,100811.62
2018-06-04T10:52:15.984Z,100813.97
2018-06-04T10:54:47.444Z,100814.38
2018-06-04T10:57:17.498Z,100808.51
2018-06-04T10:59:47.685Z,100803.64
2018-06-04T11:02:18.578Z,100807.95
2018-06-04T11:04:48.376Z,100801.95
2018-06-04T11:07:18.259Z,100809.23
2018-06-04T11:09:48.786Z,100806.20
2018-06-04T11:12:19.482Z,100802.03
2018-06-04T11:14:50.590Z,100800.07
2018-06-04T11:17:20.385Z,100801.64
2018-06-04T11:19:51.229Z,100799.09
2018-06-04T11:22:21.034Z,100803.42
2018-06-04T11:24:52.359Z,100806.36
2018-06-04T11:27:23.260Z,100788.20
2018-06-04T11:29:53.682Z,100793.12
2018-06-04T11:32:24.449Z,100802.11
2018-06-04T11:34:55.967Z,100793.38
2018-06-04T11:37:25.690Z,100801.94
2018-06-04T11:39:56.526Z,100801.72
2018-06-04T11:42:26.232Z,100800.05
2018-06-04T11:44:55.995Z,100801.72
2018-06-04T11:47:26.814Z,100799.19
2018-06-04T11:49:56.486Z,100796.28
2018-06-04T11:52:27.873Z,100801.92
2018-06-04T11:54:58.607Z,100800.89
2018-06-04T11:57:28.372Z,100795.67
2018-06-04T12:00:00.107Z,100788.59
2018-06-04T12:02:29.514Z,100790.84
2018-06-04T12:04:59.590Z,100795.28
2018-06-04T12:07:29.376Z,100782.61
2018-06-04T12:09:59.517Z,100788.12
2018-06-04T12:12:30.071Z,100784.53
2018-06-04T12:14:59.730Z,100777.13
2018-06-04T12:17:30.416Z,100785.73
2018-06-04T12:20:00.789Z,100780.69
2018-06-04T12:22:30.660Z,100785.25
2018-06-04T12:25:01.170Z,100789.52
2018-06-04T12:27:32.091Z,100783.53
2018-06-04T12:30:02.234Z,100788.02
2018-06-04T12:32:33.252Z,100783.00
2018-06-04T12:35:03.006Z,100774.31
2018-06-04T12:37:33.511Z,100789.36
2018-06-04T12:40:04.143Z,100774.78
2018-06-04T12:42:34.624Z,100769.86
2018-06-04T12:45:04.262Z,100764.53
2018-06-04T12:47:34.300Z,100763.41
2018-06-04T12:50:05.068Z,100773.45
2018-06-04T12:52:35.458Z,100768.32
2018-06-04T12:55:06.229Z,100766.53
2018-06-04T12:57:36.231Z,100765.19
2018-06-04T13:00:06.363Z,100763.04
2018-06-04T13:02:37.232Z,100753.27
2018-06-04T13:05:08.383Z,100755.41
2018-06-04T13:07:39.076Z,100751.21
2018-06-04T13:10:10.241Z,100755.02
2018-06-04T13:12:40.169Z,100751.46
2018-06-04T13:15:10.794Z,100744.48
2018-06-04T13:17:41.548Z,100746.84
2018-06-04T13:20:11.438Z,100741.98
2018-06-04T13:22:41.469Z,100738.75
2018-06-04T13:25:11.494Z,100737.70
2018-06-04T13:27:41.458Z,100729.95
2018-06-04T13:30:12.041Z,100733.58
2018-06-04T13:32:42.803Z,100735.67
2018-06-04T13:35:12.555Z,100732.92
2018-06-04T13:37:43.374Z,100728.05
2018-06-04T13:40:13.151Z,100728.25
2018-06-04T13:42:44.523Z,100731.25
2018-06-04T13:45:15.844Z,100729.34
2018-06-04T13:47:46.100Z,100710.21
2018-06-04T13:50:16.939Z,100712.23
2018-06-04T13:52:47.035Z,100717.03
2018-06-04T13:55:16.700Z,100713.77
2018-06-04T13:57:46.552Z,100717.28
2018-06-04T14:00:16.483Z,100717.29
2018-06-04T14:02:46.443Z,100704.44
2018-06-04T14:05:17.259Z,100702.04
2018-06-04T14:07:47.898Z,100704.28
2018-06-04T14:10:17.560Z,100684.63
2018-06-04T14:12:47.330Z,100695.42
2018-06-04T14:15:17.056Z,100704.89
2018-06-04T14:17:55.216Z,100698.49
2018-06-04T14:20:24.980Z,100706.06
2018-06-04T14:22:55.336Z,100695.92
2018-06-04T14:25:26.461Z,100694.70
2018-06-04T14:27:57.544Z,100696.08
2018-06-04T14:30:27.358Z,100697.75
2018-06-04T14:32:58.887Z,100688.85
2018-06-04T14:35:29.557Z,100690.46
2018-06-04T14:38:02.458Z,100692.13
2018-06-04T14:40:33.271Z,100685.84
2018-06-04T14:43:04.675Z,100697.39
2018-06-04T14:45:34.408Z,100699.91
2018-06-04T14:48:05.745Z,100689.67
2018-06-04T14:50:35.587Z,100691.29
2018-06-04T14:53:05.423Z,100680.56
2018-06-04T14:55:35.850Z,100682.14
2018-06-04T14:58:06.484Z,100677.25
2018-06-04T15:00:37.564Z,100679.12
2018-06-04T15:03:08.374Z,100688.89
2018-06-04T15:05:39.431Z,100683.67
2018-06-04T15:08:11.073Z,100676.14
2018-06-04T15:10:41.974Z,100666.79
2018-06-04T15:13:11.726Z,100675.83
2018-06-04T15:16:44.835Z,100690.30
2018-06-04T15:19:15.339Z,100669.62
2018-06-04T15:21:46.206Z,100669.10
2018-06-04T15:24:16.699Z,100674.45
2018-06-04T15:26:46.497Z,100668.24
2018-06-04T15:29:18.167Z,100659.01
2018-06-04T15:31:48.062Z,100666.14
2018-06-04T15:34:17.826Z,100664.03
2018-06-04T15:36:47.898Z,100659.69
2018-06-04T15:39:18.323Z,100657.99
2018-06-04T15:41:48.978Z,100654.18
2018-06-04T15:44:19.394Z,100649.55
2018-06-04T15:46:49.183Z,100646.00
2018-06-04T15:49:19.253Z,100653.84
2018-06-04T15:51:49.724Z,100655.34
2018-06-04T15:54:22.962Z,100649.84
2018-06-04T15:56:55.092Z,100651.70
2018-06-04T15:59:26.264Z,100645.73
2018-06-04T16:01:56.159Z,100647.66
2018-06-04T16:04:31.093Z,100642.48
2018-06-04T16:07:04.398Z,100641.01
2018-06-04T16:09:38.113Z,100637.68
2018-06-04T16:12:11.351Z,100638.56
2018-06-04T16:14:46.197Z,100642.52
2018-06-04T16:17:17.682Z,100639.03
2018-06-04T16:19:48.955Z,100633.38
2018-06-04T16:22:21.714Z,100635.11
2018-06-04T16:24:54.003Z,100627.63
2018-06-04T16:27:27.235Z,100629.67
2018-06-04T16:29:57.534Z,100619.72
2018-06-04T16:32:27.241Z,100624.66
2018-06-04T16:34:58.881Z,100636.20
2018-06-04T16:37:29.791Z,100631.11
2018-06-04T16:40:02.486Z,100627.59
2018-06-04T16:42:33.077Z,100622.11
2018-06-04T16:45:03.109Z,100619.53
2018-06-04T16:47:33.608Z,100619.10
2018-06-04T16:50:04.126Z,100620.19
2018-06-04T16:52:33.966Z,100629.94
2018-06-04T16:55:04.180Z,100628.84
2018-06-04T16:57:36.778Z,100619.52
2018-06-04T17:00:08.170Z,100622.12
2018-06-04T17:02:38.101Z,100622.34
2018-06-04T17:05:08.240Z,100622.84
2018-06-04T17:07:38.603Z,100622.12
2018-06-04T17:10:09.209Z,100625.14
2018-06-04T17:12:39.884Z,100625.59
2018-06-04T17:15:09.741Z,100618.02
2018-06-04T17:17:40.160Z,100614.81
2018-06-04T17:20:10.958Z,100618.88
2018-06-04T17:22:41.302Z,100619.52
2018-06-04T17:25:11.446Z,100614.13
2018-06-04T17:27:41.471Z,100606.98
2018-06-04T17:30:13.135Z,100614.21
2018-06-04T17:32:42.896Z,100619.85
2018-06-04T17:35:16.217Z,100609.42
2018-06-04T17:37:46.893Z,100610.55
2018-06-04T17:40:16.823Z,100624.81
2018-06-04T17:42:48.177Z,100626.04
2018-06-04T17:45:17.857Z,100622.89
2018-06-04T17:47:49.090Z,100619.94
2018-06-04T17:50:19.521Z,100626.29
2018-06-04T17:52:50.775Z,100626.92
2018-06-04T17:55:20.517Z,100622.09
2018-06-04T17:57:51.011Z,100627.44
2018-06-04T18:00:21.158Z,100622.31
2018-06-04T18:02:50.805Z,100618.84
2018-06-04T18:05:20.544Z,100615.66
2018-06-04T18:07:52.153Z,100613.55
2018-06-04T18:10:22.513Z,100618.77
2018-06-04T18:12:54.626Z,100615.38
2018-06-04T18:15:24.917Z,100615.00
2018-06-04T18:17:55.145Z,100622.66
2018-06-04T18:20:25.699Z,100620.48
2018-06-04T18:22:56.721Z,100622.75
2018-06-04T18:25:27.241Z,100621.60
2018-06-04T18:28:02.543Z,100620.61
2018-06-04T18:30:32.349Z,100625.17
2018-06-04T18:33:02.276Z,100622.58
2018-06-04T18:35:34.393Z,100623.43
2018-06-04T18:38:06.767Z,100627.20
2018-06-04T18:40:36.515Z,100626.32
2018-06-04T18:43:08.763Z,100633.95
2018-06-04T18:45:38.654Z,100636.23
2018-06-04T18:48:09.052Z,100640.63
2018-06-04T18:50:39.144Z,100637.09
2018-06-04T18:53:10.231Z,100633.33
2018-06-04T18:55:40.375Z,100634.96
2018-06-04T18:58:10.245Z,100641.28
2018-06-04T19:00:39.910Z,100642.29
2018-06-04T19:03:09.686Z,100640.97
2018-06-04T19:05:39.501Z,100649.44
2018-06-04T19:08:10.355Z,100654.13
2018-06-04T19:10:40.077Z,100649.48
2018-06-04T19:13:10.237Z,100654.57
2018-06-04T19:15:41.510Z,100653.54
2018-06-04T19:18:11.829Z,100654.30
2018-06-04T19:20:41.746Z,100656.05
2018-06-04T19:23:12.156Z,100658.66
2018-06-04T19:25:41.880Z,100658.88
2018-06-04T19:28:11.944Z,100670.00
2018-06-04T19:30:44.391Z,100667.13
2018-06-04T19:33:14.370Z,100670.81
2018-06-04T19:35:44.238Z,100680.20
2018-06-04T19:38:14.418Z,100668.66
2018-06-04T19:40:44.211Z,100679.70
2018-06-04T19:43:14.307Z,100682.91
2018-06-04T19:45:44.726Z,100679.94
2018-06-04T19:48:15.540Z,100684.41
2018-06-04T19:50:45.399Z,100680.19
2018-06-04T19:53:15.212Z,100679.98
2018-06-04T19:55:45.628Z,100685.58
2018-06-04T19:58:16.761Z,100691.20
2018-06-04T20:00:46.758Z,100690.80
2018-06-04T20:03:16.770Z,100699.95
2018-06-04T20:05:46.853Z,100703.44
2018-06-04T20:08:16.942Z,100699.21
2018-06-04T20:10:46.838Z,100700.34
2018-06-04T20:13:16.788Z,100706.14
2018-06-04T20:15:47.076Z,100699.80
2018-06-04T20:18:17.244Z,100702.16
2018-06-04T20:20:47.095Z,100703.58
2018-06-04T20:23:17.261Z,100705.69
2018-06-04T20:25:47.098Z,100714.20
2018-06-04T20:28:17.653Z,100717.83
2018-06-04T20:30:47.845Z,100714.50
2018-06-04T20:33:17.724Z,100715.77
2018-06-04T20:35:48.445Z,100722.20
2018-06-04T20:38:18.266Z,100724.05
2018-06-04T20:40:48.069Z,100723.20
2018-06-04T20:43:18.305Z,100726.90
2018-06-04T20:45:48.015Z,100727.44
2018-06-04T20:48:18.636Z,100734.47
2018-06-04T20:50:48.488Z,100733.48
2018-06-04T20:53:18.774Z,100730.77
2018-06-04T20:55:50.176Z,100733.58
2018-06-04T20:58:20.894Z,100737.58
2018-06-04T21:00:51.224Z,100735.45
2018-06-04T21:03:22.408Z,100737.02
2018-06-04T21:05:54.235Z,100741.66
2018-06-04T21:08:25.549Z,100739.77
2018-06-04T21:10:55.387Z,100736.89
2018-06-04T21:13:25.982Z,100735.05
2018-06-04T21:15:55.976Z,100736.49
2018-06-04T21:18:25.693Z,100735.32
2018-06-04T21:20:56.323Z,100739.90
2018-06-04T21:23:26.701Z,100734.95
2018-06-04T21:25:57.539Z,100735.41
2018-06-04T21:28:27.276Z,100736.81
2018-06-04T21:30:57.032Z,100740.28
2018-06-04T21:33:27.251Z,100736.19
2018-06-04T21:35:58.058Z,100734.83
2018-06-04T21:38:28.605Z,100740.55
2018-06-04T21:40:58.324Z,100741.41
2018-06-04T21:43:28.886Z,100750.75
2018-06-04T21:45:59.496Z,100748.95
2018-06-04T21:48:29.276Z,100746.53
2018-06-04T21:50:59.085Z,100745.48
2018-06-04T21:53:28.771Z,100740.78
2018-06-04T21:55:59.887Z,100749.63
2018-06-04T21:58:29.913Z,100754.19
2018-06-04T22:00:59.669Z,100752.84
2018-06-04T22:03:30.117Z,100763.93
2018-06-04T22:05:59.977Z,100765.61
2018-06-04T22:08:29.703Z,100770.82
2018-06-04T22:11:01.206Z,100768.95
2018-06-04T22:13:31.150Z,100770.16
2018-06-04T22:16:01.750Z,100770.77
2018-06-04T22:18:32.458Z,100771.75
2018-06-04T22:21:02.174Z,100773.94
2018-06-04T22:23:31.872Z,100774.34
2018-06-04T22:26:01.673Z,100770.86
2018-06-04T22:28:31.861Z,100774.59
2018-06-04T22:31:02.057Z,100772.37
2018-06-04T22:33:31.886Z,100774.75
2018-06-04T22:36:01.500Z,100783.59
2018-06-04T22:38:31.306Z,100787.95
2018-06-04T22:41:00.972Z,100793.98
2018-06-04T22:43:30.876Z,100790.03
2018-06-04T22:46:01.172Z,100790.23
2018-06-04T22:48:32.244Z,100792.60
2018-06-04T22:51:04.005Z,100798.33
2018-06-04T22:53:34.295Z,100799.03
2018-06-04T22:56:04.932Z,100796.47
2018-06-04T22:58:34.824Z,100797.14
2018-06-04T23:01:07.880Z,100794.78
2018-06-04T23:03:38.443Z,100793.41
2018-06-04T23:06:13.416Z,100797.66
2018-06-04T23:08:43.058Z,100803.83
2018-06-04T23:11:12.706Z,100799.52
2018-06-04T23:13:42.515Z,100795.69
2018-06-04T23:16:12.158Z,100799.74
2018-06-04T23:18:41.979Z,100804.66
2018-06-04T23:21:13.099Z,100807.11
2018-06-04T23:23:43.330Z,100807.62
2018-06-04T23:26:13.107Z,100806.31
2018-06-04T23:28:43.723Z,100810.11
2018-06-04T23:31:13.445Z,100806.76
2018-06-04T23:33:43.361Z,100808.61
2018-06-04T23:36:13.150Z,100809.30
2018-06-04T23:38:43.734Z,100812.54
2018-06-04T23:41:13.450Z,100805.91
2018-06-04T23:43:43.110Z,100805.98
2018-06-04T23:46:12.780Z,100805.91
2018-06-04T23:48:43.794Z,100809.66
2018-06-04T23:51:13.454Z,100798.50
2018-06-04T23:53:44.402Z,100796.64
2018-06-04T23:56:14.632Z,100799.49
2018-06-04T23:58:45.565Z,100797.45
